Аэропорт: Мирный. Мирный

ICAO: UERR

METAR:
2020-08-13 10:30:00
UERR 131030Z 10007MPS CAVOK 15/M03 Q1012 R07/CLRD60 NOSIG RMK QFE729
METAR:
2020-08-13 08:00:00
TAF UERR 130800Z 1309/1409 08005G10MPS 9999 SCT030